createdAt,value
2023-04-18T00:04:15.019Z,12.50
2023-04-18T00:09:18.413Z,12.50
2023-04-18T00:14:23.284Z,12.50
2023-04-18T00:19:26.386Z,12.50
2023-04-18T00:24:29.476Z,12.40
2023-04-18T00:29:32.426Z,12.50
2023-04-18T00:34:35.692Z,12.40
2023-04-18T00:39:38.636Z,12.50
2023-04-18T00:44:41.559Z,12.50
2023-04-18T00:49:45.783Z,12.50
2023-04-18T00:54:49.077Z,12.50
2023-04-18T00:59:52.453Z,12.50
2023-04-18T01:04:55.492Z,12.50
2023-04-18T01:09:58.825Z,12.50
2023-04-18T01:15:03.908Z,12.60
2023-04-18T01:20:07.968Z,12.60
2023-04-18T01:25:11.556Z,12.60
2023-04-18T01:30:14.534Z,12.60
2023-04-18T01:35:18.231Z,12.60
2023-04-18T01:40:21.338Z,12.60
2023-04-18T01:45:24.416Z,12.70
2023-04-18T01:50:27.948Z,12.70
2023-04-18T01:55:30.914Z,12.70
2023-04-18T02:00:34.094Z,12.70
2023-04-18T02:05:37.589Z,12.80
2023-04-18T02:10:41.817Z,12.70
2023-04-18T02:15:46.137Z,12.80
2023-04-18T02:20:49.086Z,12.80
2023-04-18T02:25:52.116Z,12.80
2023-04-18T02:30:55.990Z,12.80
2023-04-18T02:35:58.972Z,12.80
2023-04-18T02:41:02.115Z,12.80
2023-04-18T02:46:05.238Z,12.80
2023-04-18T02:51:09.458Z,12.80
2023-04-18T02:56:17.070Z,12.80
2023-04-18T03:01:20.513Z,12.80
2023-04-18T03:06:23.478Z,12.90
2023-04-18T03:11:26.583Z,12.90
2023-04-18T03:16:29.785Z,12.90
2023-04-18T03:21:32.748Z,12.90
2023-04-18T03:26:36.444Z,12.90
2023-04-18T03:31:39.540Z,12.90
2023-04-18T03:36:42.673Z,12.90
2023-04-18T03:41:45.372Z,12.90
2023-04-18T03:46:48.400Z,12.90
2023-04-18T03:51:52.188Z,12.90
2023-04-18T03:56:55.924Z,13.00
2023-04-18T04:01:58.776Z,12.90
2023-04-18T04:07:02.046Z,13.00
2023-04-18T04:12:05.611Z,13.00
2023-04-18T04:17:08.560Z,13.00
2023-04-18T04:22:11.599Z,13.00
2023-04-18T04:27:14.507Z,12.90
2023-04-18T04:32:17.478Z,12.90
2023-04-18T04:37:20.454Z,12.90
2023-04-18T04:42:25.313Z,12.90
2023-04-18T04:47:28.804Z,12.80
2023-04-18T04:52:32.761Z,12.90
2023-04-18T04:57:35.954Z,12.90
2023-04-18T05:02:39.199Z,12.90
2023-04-18T05:07:42.273Z,12.90
2023-04-18T05:12:45.311Z,13.00
2023-04-18T05:17:48.403Z,13.10
2023-04-18T05:22:51.506Z,13.20
2023-04-18T05:27:54.482Z,13.20
2023-04-18T05:32:57.427Z,13.40
2023-04-18T05:38:00.548Z,13.50
2023-04-18T05:43:03.428Z,13.60
2023-04-18T05:48:06.409Z,13.60
2023-04-18T05:53:09.893Z,13.70
2023-04-18T05:58:12.817Z,13.70
2023-04-18T06:03:16.730Z,13.80
2023-04-18T06:08:19.945Z,13.80
2023-04-18T06:13:22.860Z,13.80
2023-04-18T06:18:25.818Z,13.80
2023-04-18T06:23:28.786Z,13.70
2023-04-18T06:28:31.718Z,13.60
2023-04-18T06:33:35.572Z,13.60
2023-04-18T06:38:38.680Z,13.60
2023-04-18T06:43:52.160Z,13.60
2023-04-18T06:49:04.916Z,13.60
2023-04-18T06:54:07.868Z,13.60
2023-04-18T06:59:10.930Z,13.70
2023-04-18T07:04:14.629Z,13.70
2023-04-18T07:09:17.923Z,13.70
2023-04-18T07:14:24.927Z,13.80
2023-04-18T07:19:28.421Z,13.80
2023-04-18T07:24:31.572Z,13.90
2023-04-18T07:29:34.514Z,14.00
2023-04-18T07:34:37.773Z,14.20
2023-04-18T07:39:41.354Z,14.40
2023-04-18T07:44:44.664Z,14.50
2023-04-18T07:49:47.624Z,14.60
2023-04-18T07:54:51.310Z,14.60
2023-04-18T07:59:54.477Z,14.60
2023-04-18T08:04:58.522Z,14.70
2023-04-18T08:10:01.772Z,14.90
2023-04-18T08:15:05.812Z,14.90
2023-04-18T08:20:09.132Z,15.10
2023-04-18T08:25:12.418Z,15.40
2023-04-18T08:30:15.926Z,15.60
2023-04-18T08:35:18.914Z,15.70
2023-04-18T08:40:22.108Z,15.70
2023-04-18T08:45:25.024Z,15.80
2023-04-18T08:50:28.040Z,15.90
2023-04-18T08:55:31.094Z,16.10
2023-04-18T09:00:34.287Z,16.30
2023-04-18T09:05:38.543Z,16.40
2023-04-18T09:10:43.053Z,16.30
2023-04-18T09:15:56.176Z,16.40
2023-04-18T09:21:20.117Z,16.60
2023-04-18T09:26:36.345Z,16.90
2023-04-18T09:32:01.599Z,17.30
2023-04-18T09:37:13.588Z,17.70
2023-04-18T09:42:18.268Z,18.00
2023-04-18T09:47:21.218Z,18.30
2023-04-18T09:52:28.254Z,18.30
2023-04-18T09:57:34.677Z,18.30
2023-04-18T10:02:50.538Z,18.10
2023-04-18T10:07:55.120Z,18.20
2023-04-18T10:13:00.271Z,18.20
2023-04-18T10:18:24.756Z,18.30
2023-04-18T10:23:37.195Z,18.40
2023-04-18T10:28:53.469Z,18.40
2023-04-18T10:34:05.316Z,18.40
2023-04-18T10:39:23.765Z,18.40
2023-04-18T10:44:27.659Z,18.50
2023-04-18T10:49:33.769Z,18.70
2023-04-18T10:54:38.152Z,18.80
2023-04-18T10:59:50.337Z,18.70
2023-04-18T11:04:58.817Z,18.60
2023-04-18T11:10:02.423Z,18.70
2023-04-18T11:15:25.783Z,18.80
2023-04-18T11:20:37.289Z,19.00
2023-04-18T11:25:40.646Z,19.30
2023-04-18T11:30:43.526Z,19.40
2023-04-18T11:35:49.290Z,19.50
2023-04-18T11:40:52.481Z,19.60
2023-04-18T11:45:58.268Z,19.50
2023-04-18T11:51:01.450Z,19.50
2023-04-18T11:56:05.994Z,19.70
2023-04-18T12:01:24.921Z,19.80
2023-04-18T12:06:29.728Z,20.30
2023-04-18T12:11:32.952Z,21.60
2023-04-18T12:16:36.033Z,22.70
2023-04-18T12:22:00.670Z,23.10
2023-04-18T12:27:04.013Z,23.00
2023-04-18T12:32:06.871Z,22.80
2023-04-18T12:37:10.060Z,22.30
2023-04-18T12:42:13.097Z,21.80
2023-04-18T12:47:15.967Z,21.40
2023-04-18T12:52:18.877Z,21.80
2023-04-18T12:57:22.205Z,22.50
2023-04-18T13:02:26.614Z,22.60
2023-04-18T13:07:29.770Z,22.30
2023-04-18T13:12:32.947Z,21.70
2023-04-18T13:17:36.971Z,22.00
2023-04-18T13:22:41.605Z,23.10
2023-04-18T13:27:45.952Z,23.80
2023-04-18T13:32:48.930Z,24.30
2023-04-18T13:37:51.937Z,24.70
2023-04-18T13:42:54.952Z,24.80
2023-04-18T13:47:57.797Z,25.20
2023-04-18T13:53:00.725Z,25.70
2023-04-18T13:58:03.640Z,25.70
2023-04-18T14:03:07.177Z,26.00
2023-04-18T14:08:10.404Z,25.60
2023-04-18T14:13:13.354Z,25.60
2023-04-18T14:18:21.496Z,25.20
2023-04-18T14:23:25.956Z,25.20
2023-04-18T14:28:29.068Z,25.30
2023-04-18T14:33:35.854Z,24.50
2023-04-18T14:38:38.777Z,24.60
2023-04-18T14:43:41.729Z,24.60
2023-04-18T14:48:46.880Z,24.50
2023-04-18T14:53:50.009Z,24.70
2023-04-18T14:58:52.872Z,24.90
2023-04-18T15:03:55.985Z,25.00
2023-04-18T15:08:58.925Z,25.00
2023-04-18T15:14:01.894Z,25.00
2023-04-18T15:19:04.806Z,25.30
2023-04-18T15:24:08.251Z,25.10
2023-04-18T15:29:11.651Z,25.10
2023-04-18T15:34:16.212Z,24.80
2023-04-18T15:39:23.255Z,24.70
2023-04-18T15:44:26.694Z,24.30
2023-04-18T15:49:29.631Z,23.60
2023-04-18T15:54:33.016Z,23.00
2023-04-18T15:59:36.361Z,22.60
2023-04-18T16:04:39.836Z,21.90
2023-04-18T16:09:42.603Z,21.20
2023-04-18T16:14:45.647Z,20.60
2023-04-18T16:19:48.800Z,20.20
2023-04-18T16:24:51.832Z,19.80
2023-04-18T16:29:55.254Z,19.50
2023-04-18T16:34:58.230Z,19.20
2023-04-18T16:40:01.308Z,19.10
2023-04-18T16:45:04.801Z,19.10
2023-04-18T16:50:09.449Z,18.80
2023-04-18T16:55:12.474Z,18.50
2023-04-18T17:00:16.630Z,18.20
2023-04-18T17:05:19.702Z,18.00
2023-04-18T17:10:22.797Z,17.80
2023-04-18T17:15:27.303Z,17.70
2023-04-18T17:20:30.221Z,17.50
2023-04-18T17:25:33.233Z,17.40
2023-04-18T17:30:42.717Z,17.20
2023-04-18T17:35:46.036Z,17.10
2023-04-18T17:40:49.003Z,16.80
2023-04-18T17:45:52.126Z,16.60
2023-04-18T17:50:55.167Z,16.50
2023-04-18T17:56:01.263Z,16.30
2023-04-18T18:01:04.274Z,16.20
2023-04-18T18:06:07.758Z,16.00
2023-04-18T18:11:10.914Z,15.90
2023-04-18T18:16:14.114Z,15.70
2023-04-18T18:21:18.249Z,15.50
2023-04-18T18:26:21.349Z,15.30
2023-04-18T18:31:25.028Z,15.20
2023-04-18T18:36:28.568Z,15.10
2023-04-18T18:41:31.589Z,15.00
2023-04-18T18:46:35.491Z,15.00
2023-04-18T18:51:38.610Z,14.90
2023-04-18T18:56:42.737Z,14.80
2023-04-18T19:01:45.829Z,14.80
2023-04-18T19:06:49.063Z,14.70
2023-04-18T19:11:52.133Z,14.60
2023-04-18T19:16:56.002Z,14.60
2023-04-18T19:22:01.177Z,14.60
2023-04-18T19:27:04.455Z,14.70
2023-04-18T19:32:07.547Z,14.70
2023-04-18T19:37:10.705Z,14.80
2023-04-18T19:42:13.843Z,14.90
2023-04-18T19:47:17.002Z,14.90
2023-04-18T19:52:20.014Z,14.90
2023-04-18T19:57:23.040Z,14.90
2023-04-18T20:02:26.271Z,14.90
2023-04-18T20:07:30.752Z,14.90
2023-04-18T20:12:34.328Z,14.90
2023-04-18T20:17:37.379Z,14.90
2023-04-18T20:22:41.865Z,14.80
2023-04-18T20:27:44.886Z,14.80
2023-04-18T20:32:47.889Z,14.70
2023-04-18T20:37:50.903Z,14.70
2023-04-18T20:42:57.897Z,14.60
2023-04-18T20:48:04.025Z,14.50
2023-04-18T20:53:07.066Z,14.40
2023-04-18T20:58:10.090Z,14.30
2023-04-18T21:03:14.064Z,14.30
2023-04-18T21:08:17.114Z,14.30
2023-04-18T21:13:20.151Z,14.30
2023-04-18T21:18:23.691Z,14.30
2023-04-18T21:23:26.622Z,14.30
2023-04-18T21:28:29.620Z,14.30
2023-04-18T21:33:32.372Z,14.30
2023-04-18T21:38:35.709Z,14.20
2023-04-18T21:43:38.650Z,14.20
2023-04-18T21:48:44.190Z,14.10
2023-04-18T21:53:47.342Z,14.10
2023-04-18T21:58:50.673Z,14.10
2023-04-18T22:03:53.893Z,14.00
2023-04-18T22:08:58.326Z,14.00
2023-04-18T22:14:01.774Z,14.00
2023-04-18T22:19:05.837Z,13.90
2023-04-18T22:24:09.367Z,13.90
2023-04-18T22:29:12.249Z,13.80
2023-04-18T22:34:15.499Z,13.80
2023-04-18T22:39:18.818Z,13.80
2023-04-18T22:44:21.823Z,13.70
2023-04-18T22:49:24.682Z,13.70
2023-04-18T22:54:27.706Z,13.80
2023-04-18T22:59:30.914Z,13.80
2023-04-18T23:04:34.240Z,13.80
2023-04-18T23:09:37.183Z,13.80
2023-04-18T23:14:41.805Z,13.80
2023-04-18T23:19:45.353Z,13.90
2023-04-18T23:24:48.200Z,13.80
2023-04-18T23:29:51.078Z,13.80
2023-04-18T23:34:54.175Z,13.80
2023-04-18T23:39:58.083Z,13.80
2023-04-18T23:45:06.072Z,13.80
2023-04-18T23:50:09.712Z,13.80
2023-04-18T23:55:12.762Z,13.80
